Time,TemperatureF,DewpointF,PressureIn,WindDirection,WindDirectionDegrees,WindSpeedMPH,WindSpeedGustMPH,Humidity,HourlyPrecipIn,Conditions,Clouds,dailyrainin,SoftwareType,DateUTC
2013-03-28 00:00:00,39.9,11.8,29.94,West,278,6.3,6.3,31,0.00,,---,0.00,VWS V14.01,2013-03-28 04:00:00,
2013-03-28 00:05:00,39.7,11.6,29.94,WNW,288,5.4,5.4,31,0.00,,---,0.00,VWS V14.01,2013-03-28 04:05:00,
2013-03-28 00:10:00,39.7,11.6,29.94,NW,325,8.7,8.7,31,0.00,,---,0.00,VWS V14.01,2013-03-28 04:10:00,
2013-03-28 00:15:00,39.7,12.3,29.94,NNW,337,8.7,8.7,32,0.00,,---,0.00,VWS V14.01,2013-03-28 04:15:00,
2013-03-28 00:20:00,39.6,12.9,29.94,NNW,337,4.0,4.0,33,0.00,,---,0.00,VWS V14.01,2013-03-28 04:20:00,
2013-03-28 00:25:00,39.7,13.0,29.94,West,264,5.4,5.4,33,0.00,,---,0.00,VWS V14.01,2013-03-28 04:25:00,
2013-03-28 00:30:00,39.6,12.9,29.94,West,262,3.1,3.1,33,0.00,,---,0.00,VWS V14.01,2013-03-28 04:30:00,
2013-03-28 00:35:00,39.6,12.9,29.94,WSW,255,6.3,6.3,33,0.00,,---,0.00,VWS V14.01,2013-03-28 04:35:00,
2013-03-28 00:40:00,39.6,13.5,29.94,WNW,300,3.6,3.6,34,0.00,,---,0.00,VWS V14.01,2013-03-28 04:40:00,
2013-03-28 00:45:00,39.6,13.5,29.94,NNW,335,6.3,6.3,34,0.00,,---,0.00,VWS V14.01,2013-03-28 04:45:00,
2013-03-28 00:50:00,39.6,14.2,29.94,NNW,335,6.3,6.3,35,0.00,,---,0.00,VWS V14.01,2013-03-28 04:50:00,
2013-03-28 00:55:00,39.4,14.0,29.94,WNW,292,2.7,2.7,35,0.00,,---,0.00,VWS V14.01,2013-03-28 04:55:00,
2013-03-28 01:00:00,39.4,14.0,29.94,WSW,254,6.3,6.3,35,0.00,,---,0.00,VWS V14.01,2013-03-28 05:00:00,
2013-03-28 01:05:00,39.2,13.9,29.94,WNW,296,2.7,2.7,35,0.00,,---,0.00,VWS V14.01,2013-03-28 05:05:00,
2013-03-28 01:10:00,39.0,14.3,29.94,West,277,2.7,2.7,36,0.00,,---,0.00,VWS V14.01,2013-03-28 05:10:00,
2013-03-28 01:15:00,39.0,14.3,29.94,WSW,255,3.1,3.1,36,0.00,,---,0.00,VWS V14.01,2013-03-28 05:15:00,
2013-03-28 01:20:00,39.0,14.3,29.94,West,261,6.3,6.3,36,0.00,,---,0.00,VWS V14.01,2013-03-28 05:20:00,
2013-03-28 01:25:00,38.7,14.6,29.94,West,266,4.0,4.0,37,0.00,,---,0.00,VWS V14.01,2013-03-28 05:25:00,
2013-03-28 01:30:00,38.7,14.6,29.94,WNW,290,5.4,5.4,37,0.00,,---,0.00,VWS V14.01,2013-03-28 05:30:00,
2013-03-28 01:35:00,38.7,14.6,29.94,WNW,288,3.1,3.1,37,0.00,,---,0.00,VWS V14.01,2013-03-28 05:35:00,
2013-03-28 01:40:00,38.5,14.5,29.94,NW,318,2.2,2.2,37,0.00,,---,0.00,VWS V14.01,2013-03-28 05:40:00,
2013-03-28 01:45:00,38.5,14.5,29.94,WNW,297,2.7,2.7,37,0.00,,---,0.00,VWS V14.01,2013-03-28 05:45:00,
2013-03-28 01:50:00,37.9,14.6,29.94,WNW,303,5.4,5.4,38,0.00,,---,0.00,VWS V14.01,2013-03-28 05:50:00,
2013-03-28 01:55:00,37.9,15.2,29.94,NW,322,4.0,4.0,39,0.00,,---,0.00,VWS V14.01,2013-03-28 05:55:00,
2013-03-28 02:00:00,37.9,15.2,29.94,WNW,287,5.8,5.8,39,0.00,,---,0.00,VWS V14.01,2013-03-28 06:00:00,
2013-03-28 02:05:00,37.9,15.2,29.94,West,277,3.6,3.6,39,0.00,,---,0.00,VWS V14.01,2013-03-28 06:05:00,
2013-03-28 02:10:00,37.9,15.2,29.94,WNW,301,2.7,2.7,39,0.00,,---,0.00,VWS V14.01,2013-03-28 06:10:00,
2013-03-28 02:15:00,37.6,14.9,29.94,West,279,6.3,6.3,39,0.00,,---,0.00,VWS V14.01,2013-03-28 06:15:00,
2013-03-28 02:20:00,37.6,14.9,29.94,WNW,293,6.7,6.7,39,0.00,,---,0.00,VWS V14.01,2013-03-28 06:20:00,
2013-03-28 02:25:00,37.6,15.5,29.94,SW,223,5.8,5.8,40,0.00,,---,0.00,VWS V14.01,2013-03-28 06:25:00,
2013-03-28 02:30:00,37.4,15.3,29.94,WSW,251,2.7,2.7,40,0.00,,---,0.00,VWS V14.01,2013-03-28 06:30:00,
2013-03-28 02:36:00,37.4,15.3,29.94,NW,310,5.8,5.8,40,0.00,,---,0.00,VWS V14.01,2013-03-28 06:36:00,
2013-03-28 02:41:00,37.2,15.1,29.94,WNW,294,5.8,5.8,40,0.00,,---,0.00,VWS V14.01,2013-03-28 06:41:00,
2013-03-28 02:46:00,37.2,15.1,29.94,NNW,330,5.8,5.8,40,0.00,,---,0.00,VWS V14.01,2013-03-28 06:46:00,
2013-03-28 02:51:00,37.0,15.5,29.94,NNW,330,5.8,5.8,41,0.00,,---,0.00,VWS V14.01,2013-03-28 06:51:00,
2013-03-28 02:56:00,36.9,15.4,29.94,NNW,343,5.8,5.8,41,0.00,,---,0.00,VWS V14.01,2013-03-28 06:56:00,
2013-03-28 03:01:00,36.7,15.2,29.94,West,259,0.0,0.0,41,0.00,,---,0.00,VWS V14.01,2013-03-28 07:01:00,
2013-03-28 03:06:00,36.3,14.9,29.94,NW,307,5.4,5.4,41,0.00,,---,0.00,VWS V14.01,2013-03-28 07:06:00,
2013-03-28 03:11:00,36.3,14.9,29.94,WNW,300,0.0,0.0,41,0.00,,---,0.00,VWS V14.01,2013-03-28 07:11:00,
2013-03-28 03:17:00,36.0,14.6,29.94,West,263,2.7,2.7,41,0.00,,---,0.00,VWS V14.01,2013-03-28 07:17:00,
2013-03-28 03:22:00,36.0,14.6,29.94,WNW,286,5.8,5.8,41,0.00,,---,0.00,VWS V14.01,2013-03-28 07:22:00,
2013-03-28 03:27:00,35.6,14.8,29.94,NW,312,3.6,3.6,42,0.00,,---,0.00,VWS V14.01,2013-03-28 07:27:00,
2013-03-28 03:32:00,35.6,15.3,29.94,WSW,253,5.4,5.4,43,0.00,,---,0.00,VWS V14.01,2013-03-28 07:32:00,
2013-03-28 03:37:00,35.8,15.5,29.94,WSW,243,2.7,2.7,43,0.00,,---,0.00,VWS V14.01,2013-03-28 07:37:00,
2013-03-28 03:42:00,35.8,16.0,29.94,West,263,4.0,4.0,44,0.00,,---,0.00,VWS V14.01,2013-03-28 07:42:00,
2013-03-28 03:47:00,35.8,16.0,29.94,West,263,4.0,4.0,44,0.00,,---,0.00,VWS V14.01,2013-03-28 07:47:00,
2013-03-28 03:52:00,35.8,16.0,29.94,West,273,5.4,5.4,44,0.00,,---,0.00,VWS V14.01,2013-03-28 07:52:00,
2013-03-28 03:57:00,36.0,16.7,29.94,West,281,7.2,7.2,45,0.00,,---,0.00,VWS V14.01,2013-03-28 07:57:00,
2013-03-28 04:02:00,36.0,16.7,29.94,WSW,242,2.7,2.7,45,0.00,,---,0.00,VWS V14.01,2013-03-28 08:02:00,
2013-03-28 04:07:00,35.8,16.0,29.94,West,265,5.4,5.4,44,0.00,,---,0.00,VWS V14.01,2013-03-28 08:07:00,
2013-03-28 04:12:00,35.8,16.0,29.94,West,262,6.3,6.3,44,0.00,,---,0.00,VWS V14.01,2013-03-28 08:12:00,
2013-03-28 04:17:00,35.6,16.4,29.94,WNW,294,4.9,4.9,45,0.00,,---,0.00,VWS V14.01,2013-03-28 08:17:00,
2013-03-28 04:22:00,35.6,16.4,29.94,West,279,4.0,4.0,45,0.00,,---,0.00,VWS V14.01,2013-03-28 08:22:00,
2013-03-28 04:27:00,35.6,16.4,29.94,West,278,6.3,6.3,45,0.00,,---,0.00,VWS V14.01,2013-03-28 08:27:00,
2013-03-28 04:32:00,35.4,16.2,29.94,WNW,299,4.0,4.0,45,0.00,,---,0.00,VWS V14.01,2013-03-28 08:32:00,
2013-03-28 04:37:00,35.1,16.4,29.94,West,278,5.4,5.4,46,0.00,,---,0.00,VWS V14.01,2013-03-28 08:37:00,
2013-03-28 04:42:00,35.1,16.4,29.94,West,263,5.4,5.4,46,0.00,,---,0.00,VWS V14.01,2013-03-28 08:42:00,
2013-03-28 04:47:00,35.1,16.4,29.94,West,267,2.7,2.7,46,0.00,,---,0.00,VWS V14.01,2013-03-28 08:47:00,
2013-03-28 04:52:00,35.1,16.4,29.94,SW,235,3.6,3.6,46,0.00,,---,0.00,VWS V14.01,2013-03-28 08:52:00,
2013-03-28 04:57:00,34.7,16.5,29.94,WNW,293,7.6,7.6,47,0.00,,---,0.00,VWS V14.01,2013-03-28 08:57:00,
2013-03-28 05:02:00,34.7,17.0,29.94,West,281,8.1,8.1,48,0.00,,---,0.00,VWS V14.01,2013-03-28 09:02:00,
2013-03-28 05:07:00,34.9,17.2,29.94,WSW,255,3.6,3.6,48,0.00,,---,0.00,VWS V14.01,2013-03-28 09:07:00,
2013-03-28 05:12:00,34.7,17.0,29.94,NW,309,2.7,2.7,48,0.00,,---,0.00,VWS V14.01,2013-03-28 09:12:00,
2013-03-28 05:17:00,34.7,17.0,29.94,NW,304,5.8,5.8,48,0.00,,---,0.00,VWS V14.01,2013-03-28 09:17:00,
2013-03-28 05:22:00,34.5,17.3,29.94,NW,307,5.8,5.8,49,0.00,,---,0.00,VWS V14.01,2013-03-28 09:22:00,
2013-03-28 05:27:00,34.5,17.3,29.94,WSW,250,5.4,5.4,49,0.00,,---,0.00,VWS V14.01,2013-03-28 09:27:00,
2013-03-28 05:32:00,34.3,17.2,29.94,West,281,4.0,4.0,49,0.00,,---,0.00,VWS V14.01,2013-03-28 09:32:00,
2013-03-28 05:37:00,34.3,17.6,29.94,WSW,257,6.3,6.3,50,0.00,,---,0.00,VWS V14.01,2013-03-28 09:37:00,
2013-03-28 05:42:00,34.3,17.6,29.94,WNW,285,5.4,5.4,50,0.00,,---,0.00,VWS V14.01,2013-03-28 09:42:00,
2013-03-28 05:47:00,34.3,17.6,29.94,WSW,250,4.9,4.9,50,0.00,,---,0.00,VWS V14.01,2013-03-28 09:47:00,
2013-03-28 05:52:00,34.3,17.6,29.94,WSW,250,4.9,4.9,50,0.00,,---,0.00,VWS V14.01,2013-03-28 09:52:00,
2013-03-28 05:57:00,34.3,17.6,29.94,West,272,4.9,4.9,50,0.00,,---,0.00,VWS V14.01,2013-03-28 09:57:00,
2013-03-28 06:02:00,34.3,18.1,29.94,WNW,302,3.6,3.6,51,0.00,,---,0.00,VWS V14.01,2013-03-28 10:02:00,
2013-03-28 06:07:00,34.3,18.1,29.94,WSW,247,4.9,4.9,51,0.00,,---,0.00,VWS V14.01,2013-03-28 10:07:00,
2013-03-28 06:12:00,34.0,17.3,29.94,West,267,3.1,3.1,50,0.00,,---,0.00,VWS V14.01,2013-03-28 10:12:00,
2013-03-28 06:17:00,34.0,17.3,29.94,West,281,5.4,5.4,50,0.00,,---,0.00,VWS V14.01,2013-03-28 10:17:00,
2013-03-28 06:22:00,34.0,17.3,29.94,WSW,247,2.7,2.7,50,0.00,,---,0.00,VWS V14.01,2013-03-28 10:22:00,
2013-03-28 06:27:00,34.0,17.3,29.94,WSW,256,4.0,4.0,50,0.00,,---,0.00,VWS V14.01,2013-03-28 10:27:00,
2013-03-28 06:32:00,34.0,17.3,29.94,West,276,6.3,6.3,50,0.00,,---,0.00,VWS V14.01,2013-03-28 10:32:00,
2013-03-28 06:37:00,34.0,17.3,29.94,West,268,4.9,4.9,50,0.00,,---,0.00,VWS V14.01,2013-03-28 10:37:00,
2013-03-28 06:42:00,34.0,17.3,29.94,West,267,2.2,2.2,50,0.00,,---,0.00,VWS V14.01,2013-03-28 10:42:00,
2013-03-28 06:47:00,34.0,17.3,29.94,West,265,5.4,5.4,50,0.00,,---,0.00,VWS V14.01,2013-03-28 10:47:00,
2013-03-28 06:53:00,34.2,17.5,29.94,WNW,292,7.6,7.6,50,0.00,,---,0.00,VWS V14.01,2013-03-28 10:53:00,
2013-03-28 06:57:00,34.3,17.6,29.94,WNW,299,6.3,6.3,50,0.00,,---,0.00,VWS V14.01,2013-03-28 10:57:00,
2013-03-28 07:03:00,34.3,17.2,29.94,WNW,299,6.3,6.3,49,0.00,,---,0.00,VWS V14.01,2013-03-28 11:03:00,
2013-03-28 07:08:00,34.5,16.9,29.94,WSW,250,8.3,8.3,48,0.00,,---,0.00,VWS V14.01,2013-03-28 11:08:00,
2013-03-28 07:13:00,34.5,16.9,29.94,West,280,3.6,3.6,48,0.00,,---,0.00,VWS V14.01,2013-03-28 11:13:00,
2013-03-28 07:18:00,34.7,16.0,29.94,WNW,294,4.0,4.0,46,0.00,,---,0.00,VWS V14.01,2013-03-28 11:18:00,
2013-03-28 07:23:00,34.7,16.0,29.94,WNW,293,3.1,3.1,46,0.00,,---,0.00,VWS V14.01,2013-03-28 11:23:00,
2013-03-28 07:28:00,34.9,15.7,29.94,West,278,5.4,5.4,45,0.00,,---,0.00,VWS V14.01,2013-03-28 11:28:00,
2013-03-28 07:33:00,34.9,15.7,29.94,West,263,4.9,4.9,45,0.00,,---,0.00,VWS V14.01,2013-03-28 11:33:00,
2013-03-28 07:38:00,35.1,15.9,29.94,WNW,286,8.1,8.1,45,0.00,,---,0.00,VWS V14.01,2013-03-28 11:38:00,
2013-03-28 07:43:00,35.6,15.3,29.97,West,268,8.3,8.3,43,0.00,,---,0.00,VWS V14.01,2013-03-28 11:43:00,
2013-03-28 07:48:00,35.6,15.3,29.97,WNW,297,3.6,3.6,43,0.00,,---,0.00,VWS V14.01,2013-03-28 11:48:00,
2013-03-28 07:53:00,36.0,15.6,29.97,West,280,3.6,3.6,43,0.00,,---,0.00,VWS V14.01,2013-03-28 11:53:00,
2013-03-28 07:58:00,36.3,15.4,29.97,West,278,8.3,8.3,42,0.00,,---,0.00,VWS V14.01,2013-03-28 11:58:00,
2013-03-28 08:03:00,36.7,15.2,29.97,SW,225,4.0,4.0,41,0.00,,---,0.00,VWS V14.01,2013-03-28 12:03:00,
2013-03-28 08:08:00,37.0,15.0,29.97,WSW,255,4.9,4.9,40,0.00,,---,0.00,VWS V14.01,2013-03-28 12:08:00,
2013-03-28 08:13:00,37.2,15.1,29.97,WNW,291,5.4,5.4,40,0.00,,---,0.00,VWS V14.01,2013-03-28 12:13:00,
2013-03-28 08:18:00,37.4,14.7,29.97,West,279,5.4,5.4,39,0.00,,---,0.00,VWS V14.01,2013-03-28 12:18:00,
2013-03-28 08:23:00,37.9,15.2,29.97,WNW,297,7.2,7.2,39,0.00,,---,0.00,VWS V14.01,2013-03-28 12:23:00,
2013-03-28 08:28:00,38.1,15.4,29.97,WNW,285,8.3,8.3,39,0.00,,---,0.00,VWS V14.01,2013-03-28 12:28:00,
2013-03-28 08:33:00,38.8,15.4,29.97,WSW,249,4.0,4.0,38,0.00,,---,0.00,VWS V14.01,2013-03-28 12:33:00,
2013-03-28 08:38:00,39.4,14.7,29.97,West,272,5.8,5.8,36,0.00,,---,0.00,VWS V14.01,2013-03-28 12:38:00,
2013-03-28 08:43:00,40.3,14.8,29.97,West,276,8.7,8.7,35,0.00,,---,0.00,VWS V14.01,2013-03-28 12:43:00,
2013-03-28 08:48:00,40.3,14.8,29.97,WNW,287,6.3,6.3,35,0.00,,---,0.00,VWS V14.01,2013-03-28 12:48:00,
2013-03-28 08:53:00,44.1,13.9,29.97,WNW,300,5.4,5.4,29,0.00,,---,0.00,VWS V14.01,2013-03-28 12:53:00,
2013-03-28 08:58:00,44.4,14.2,29.97,NNW,340,5.8,5.8,29,0.00,,---,0.00,VWS V14.01,2013-03-28 12:58:00,
2013-03-28 09:03:00,44.4,14.2,29.97,West,280,7.6,7.6,29,0.00,,---,0.00,VWS V14.01,2013-03-28 13:03:00,
2013-03-28 09:08:00,49.1,8.6,29.97,West,268,8.3,8.3,19,0.00,,---,0.00,VWS V14.01,2013-03-28 13:08:00,
2013-03-28 09:13:00,51.6,6.9,29.97,NNW,333,5.8,5.8,16,0.00,,---,0.00,VWS V14.01,2013-03-28 13:13:00,
2013-03-28 09:18:00,53.1,3.5,29.97,NNW,336,5.8,5.8,13,0.00,,---,0.00,VWS V14.01,2013-03-28 13:18:00,
2013-03-28 09:23:00,53.1,3.5,29.97,WNW,302,7.6,7.6,13,0.00,,---,0.00,VWS V14.01,2013-03-28 13:23:00,
2013-03-28 09:28:00,53.1,3.5,29.97,NNE,32,3.6,3.6,13,0.00,,---,0.00,VWS V14.01,2013-03-28 13:28:00,
2013-03-28 09:33:00,53.1,3.5,29.97,WNW,282,8.3,8.3,13,0.00,,---,0.00,VWS V14.01,2013-03-28 13:33:00,
2013-03-28 09:38:00,54.0,4.2,29.97,NW,320,0.0,0.0,13,0.00,,---,0.00,VWS V14.01,2013-03-28 13:38:00,
2013-03-28 09:43:00,52.9,3.4,29.97,NNW,335,5.4,5.4,13,0.00,,---,0.00,VWS V14.01,2013-03-28 13:43:00,
2013-03-28 09:48:00,52.9,3.4,29.97,NW,314,3.1,3.1,13,0.00,,---,0.00,VWS V14.01,2013-03-28 13:48:00,
2013-03-28 09:53:00,52.9,3.4,29.97,West,273,5.4,5.4,13,0.00,,---,0.00,VWS V14.01,2013-03-28 13:53:00,
2013-03-28 09:58:00,52.9,3.4,29.97,NNW,340,4.9,4.9,13,0.00,,---,0.00,VWS V14.01,2013-03-28 13:58:00,
2013-03-28 10:03:00,53.1,3.5,29.97,SSW,209,6.3,6.3,13,0.00,,---,0.00,VWS V14.01,2013-03-28 14:03:00,
2013-03-28 10:08:00,52.3,3.0,29.97,NW,314,5.8,5.8,13,0.00,,---,0.00,VWS V14.01,2013-03-28 14:08:00,
2013-03-28 10:13:00,52.3,3.0,29.97,WNW,302,5.4,5.4,13,0.00,,---,0.00,VWS V14.01,2013-03-28 14:13:00,
2013-03-28 10:18:00,52.3,3.0,29.97,WSW,246,10.1,10.1,13,0.00,,---,0.00,VWS V14.01,2013-03-28 14:18:00,
2013-03-28 10:23:00,53.4,3.8,29.97,WNW,288,10.5,10.5,13,0.00,,---,0.00,VWS V14.01,2013-03-28 14:23:00,
2013-03-28 10:28:00,55.8,3.9,29.97,West,270,9.6,9.6,12,0.00,,---,0.00,VWS V14.01,2013-03-28 14:28:00,
2013-03-28 10:33:00,55.8,3.9,29.97,WSW,248,3.6,3.6,12,0.00,,---,0.00,VWS V14.01,2013-03-28 14:33:00,
2013-03-28 10:38:00,57.7,5.5,29.97,West,278,8.1,8.1,12,0.00,,---,0.00,VWS V14.01,2013-03-28 14:38:00,
2013-03-28 10:43:00,58.3,5.9,29.97,NW,322,5.8,5.8,12,0.00,,---,0.00,VWS V14.01,2013-03-28 14:43:00,
2013-03-28 10:48:00,58.3,5.9,29.97,WNW,295,3.1,3.1,12,0.00,,---,0.00,VWS V14.01,2013-03-28 14:48:00,
2013-03-28 10:53:00,59.2,6.6,29.97,NNW,345,8.1,8.1,12,0.00,,---,0.00,VWS V14.01,2013-03-28 14:53:00,
2013-03-28 10:58:00,59.2,6.6,29.97,West,274,4.9,4.9,12,0.00,,---,0.00,VWS V14.01,2013-03-28 14:58:00,
2013-03-28 11:03:00,55.6,3.8,29.97,NW,312,6.3,6.3,12,0.00,,---,0.00,VWS V14.01,2013-03-28 15:03:00,
2013-03-28 11:08:00,55.6,3.8,29.97,WNW,288,8.1,8.1,12,0.00,,---,0.00,VWS V14.01,2013-03-28 15:08:00,
2013-03-28 11:13:00,52.5,3.1,29.97,WNW,289,8.1,8.1,13,0.00,,---,0.00,VWS V14.01,2013-03-28 15:13:00,
2013-03-28 11:18:00,52.3,3.0,29.97,WNW,287,5.8,5.8,13,0.00,,---,0.00,VWS V14.01,2013-03-28 15:18:00,
2013-03-28 11:23:00,52.3,3.0,29.97,NE,38,5.4,5.4,13,0.00,,---,0.00,VWS V14.01,2013-03-28 15:23:00,
2013-03-28 11:28:00,54.1,4.4,29.97,North,349,4.0,4.0,13,0.00,,---,0.00,VWS V14.01,2013-03-28 15:28:00,
2013-03-28 11:33:00,54.1,4.4,29.97,NNW,344,3.6,3.6,13,0.00,,---,0.00,VWS V14.01,2013-03-28 15:33:00,
2013-03-28 11:39:00,53.4,3.8,29.97,North,9,8.7,8.7,13,0.00,,---,0.00,VWS V14.01,2013-03-28 15:39:00,
2013-03-28 11:44:00,53.2,3.7,29.97,NNE,31,7.6,7.6,13,0.00,,---,0.00,VWS V14.01,2013-03-28 15:44:00,
2013-03-28 11:49:00,53.4,3.8,29.97,NNW,337,8.3,8.3,13,0.00,,---,0.00,VWS V14.01,2013-03-28 15:49:00,
2013-03-28 11:54:00,52.2,2.8,29.97,North,357,5.4,5.4,13,0.00,,---,0.00,VWS V14.01,2013-03-28 15:54:00,
2013-03-28 11:59:00,51.6,4.0,29.97,NW,322,8.3,8.3,14,0.00,,---,0.00,VWS V14.01,2013-03-28 15:59:00,
2013-03-28 12:04:00,50.0,2.7,29.97,NW,322,8.3,8.3,14,0.00,,---,0.00,VWS V14.01,2013-03-28 16:04:00,
2013-03-28 12:09:00,50.2,2.8,29.97,NNW,343,3.6,3.6,14,0.00,,---,0.00,VWS V14.01,2013-03-28 16:09:00,
2013-03-28 12:14:00,50.4,3.0,29.97,WNW,291,5.4,5.4,14,0.00,,---,0.00,VWS V14.01,2013-03-28 16:14:00,
2013-03-28 12:19:00,50.2,2.8,29.97,WNW,291,5.4,5.4,14,0.00,,---,0.00,VWS V14.01,2013-03-28 16:19:00,
2013-03-28 12:24:00,49.8,2.5,29.97,WNW,302,6.3,6.3,14,0.00,,---,0.00,VWS V14.01,2013-03-28 16:24:00,
2013-03-28 12:29:00,49.6,2.4,29.97,WNW,292,6.3,6.3,14,0.00,,---,0.00,VWS V14.01,2013-03-28 16:29:00,
2013-03-28 12:34:00,49.6,2.4,29.97,North,350,5.8,5.8,14,0.00,,---,0.00,VWS V14.01,2013-03-28 16:34:00,
2013-03-28 12:39:00,50.0,2.7,29.97,North,2,7.6,7.6,14,0.00,,---,0.00,VWS V14.01,2013-03-28 16:39:00,
2013-03-28 12:44:00,50.4,3.0,29.97,NW,325,7.6,7.6,14,0.00,,---,0.00,VWS V14.01,2013-03-28 16:44:00,
2013-03-28 12:49:00,50.9,3.4,29.97,NW,309,5.4,5.4,14,0.00,,---,0.00,VWS V14.01,2013-03-28 16:49:00,
2013-03-28 12:54:00,51.3,3.7,29.97,NW,318,4.0,4.0,14,0.00,,---,0.00,VWS V14.01,2013-03-28 16:54:00,
2013-03-28 12:59:00,51.3,3.7,29.97,SW,220,2.7,2.7,14,0.00,,---,0.00,VWS V14.01,2013-03-28 16:59:00,
2013-03-28 13:04:00,50.9,3.4,29.97,NW,307,8.1,8.1,14,0.00,,---,0.00,VWS V14.01,2013-03-28 17:04:00,
2013-03-28 13:09:00,50.9,3.4,29.97,NW,316,3.6,3.6,14,0.00,,---,0.00,VWS V14.01,2013-03-28 17:09:00,
2013-03-28 13:14:00,51.3,3.7,29.97,NNW,343,6.3,6.3,14,0.00,,---,0.00,VWS V14.01,2013-03-28 17:14:00,
2013-03-28 13:19:00,51.3,3.7,29.97,NW,321,8.1,8.1,14,0.00,,---,0.00,VWS V14.01,2013-03-28 17:19:00,
2013-03-28 13:24:00,51.3,3.7,29.97,West,270,4.9,4.9,14,0.00,,---,0.00,VWS V14.01,2013-03-28 17:24:00,
2013-03-28 13:29:00,50.7,3.3,29.97,NNW,328,3.1,3.1,14,0.00,,---,0.00,VWS V14.01,2013-03-28 17:29:00,
2013-03-28 13:34:00,50.5,3.1,29.97,North,2,4.0,4.0,14,0.00,,---,0.00,VWS V14.01,2013-03-28 17:34:00,
2013-03-28 13:39:00,50.7,3.3,29.97,North,2,4.0,4.0,14,0.00,,---,0.00,VWS V14.01,2013-03-28 17:39:00,
2013-03-28 13:44:00,50.7,3.3,29.97,NNW,341,4.0,4.0,14,0.00,,---,0.00,VWS V14.01,2013-03-28 17:44:00,
2013-03-28 13:49:00,50.7,3.3,29.97,North,7,8.3,8.3,14,0.00,,---,0.00,VWS V14.01,2013-03-28 17:49:00,
2013-03-28 13:54:00,53.2,3.7,29.97,North,353,4.9,4.9,13,0.00,,---,0.00,VWS V14.01,2013-03-28 17:54:00,
2013-03-28 13:59:00,52.3,3.0,29.94,WNW,285,4.9,4.9,13,0.00,,---,0.00,VWS V14.01,2013-03-28 17:59:00,
2013-03-28 14:04:00,51.6,4.0,29.94,NE,43,8.1,8.1,14,0.00,,---,0.00,VWS V14.01,2013-03-28 18:04:00,
2013-03-28 14:09:00,51.3,3.7,29.94,NNW,332,6.3,6.3,14,0.00,,---,0.00,VWS V14.01,2013-03-28 18:09:00,
2013-03-28 14:14:00,49.8,2.5,29.97,North,0,8.7,8.7,14,0.00,,---,0.00,VWS V14.01,2013-03-28 18:14:00,
2013-03-28 14:19:00,49.8,2.5,29.97,North,9,5.8,5.8,14,0.00,,---,0.00,VWS V14.01,2013-03-28 18:19:00,
2013-03-28 14:24:00,49.3,2.1,29.97,NE,43,3.6,3.6,14,0.00,,---,0.00,VWS V14.01,2013-03-28 18:24:00,
2013-03-28 14:29:00,49.8,2.5,29.97,WNW,284,3.1,3.1,14,0.00,,---,0.00,VWS V14.01,2013-03-28 18:29:00,
2013-03-28 14:34:00,50.4,3.0,29.97,NNW,329,5.8,5.8,14,0.00,,---,0.00,VWS V14.01,2013-03-28 18:34:00,
2013-03-28 14:39:00,50.4,3.0,29.97,NW,305,3.6,3.6,14,0.00,,---,0.00,VWS V14.01,2013-03-28 18:39:00,
2013-03-28 14:44:00,51.6,4.0,29.97,West,263,3.6,3.6,14,0.00,,---,0.00,VWS V14.01,2013-03-28 18:44:00,
2013-03-28 14:49:00,51.8,2.5,29.97,NW,313,6.3,6.3,13,0.00,,---,0.00,VWS V14.01,2013-03-28 18:49:00,
2013-03-28 14:54:00,51.6,4.0,29.97,NW,313,6.3,6.3,14,0.00,,---,0.00,VWS V14.01,2013-03-28 18:54:00,
2013-03-28 14:59:00,50.7,3.3,29.97,WNW,288,3.6,3.6,14,0.00,,---,0.00,VWS V14.01,2013-03-28 18:59:00,
2013-03-28 15:04:00,50.4,3.0,29.97,North,5,3.6,3.6,14,0.00,,---,0.00,VWS V14.01,2013-03-28 19:04:00,
2013-03-28 15:09:00,50.2,2.8,29.97,West,280,3.1,3.1,14,0.00,,---,0.00,VWS V14.01,2013-03-28 19:09:00,
2013-03-28 15:14:00,50.2,2.8,29.97,NNW,341,5.8,5.8,14,0.00,,---,0.00,VWS V14.01,2013-03-28 19:14:00,
2013-03-28 15:19:00,50.2,2.8,29.97,NW,326,4.0,4.0,14,0.00,,---,0.00,VWS V14.01,2013-03-28 19:19:00,
2013-03-28 15:24:00,50.4,3.0,29.97,NNW,339,6.3,6.3,14,0.00,,---,0.00,VWS V14.01,2013-03-28 19:24:00,
2013-03-28 15:29:00,50.4,3.0,29.97,NNW,333,8.7,8.7,14,0.00,,---,0.00,VWS V14.01,2013-03-28 19:29:00,
2013-03-28 15:34:00,50.0,2.7,29.97,SW,234,5.4,5.4,14,0.00,,---,0.00,VWS V14.01,2013-03-28 19:34:00,
2013-03-28 15:39:00,50.2,2.8,29.97,WNW,283,0.0,0.0,14,0.00,,---,0.00,VWS V14.01,2013-03-28 19:39:00,
2013-03-28 15:44:00,50.2,2.8,29.97,West,281,5.8,5.8,14,0.00,,---,0.00,VWS V14.01,2013-03-28 19:44:00,
2013-03-28 15:50:00,51.3,3.7,29.97,NNW,332,6.7,6.7,14,0.00,,---,0.00,VWS V14.01,2013-03-28 19:50:00,
2013-03-28 15:55:00,51.3,3.7,29.97,West,280,3.6,3.6,14,0.00,,---,0.00,VWS V14.01,2013-03-28 19:55:00,
2013-03-28 16:00:00,52.2,2.8,29.97,NNW,343,5.4,5.4,13,0.00,,---,0.00,VWS V14.01,2013-03-28 20:00:00,
2013-03-28 16:05:00,52.7,3.2,29.97,NNW,346,2.2,2.2,13,0.00,,---,0.00,VWS V14.01,2013-03-28 20:05:00,
2013-03-28 16:10:00,52.7,3.2,29.97,North,353,3.6,3.6,13,0.00,,---,0.00,VWS V14.01,2013-03-28 20:10:00,
2013-03-28 16:15:00,52.2,2.8,29.97,NNW,330,3.1,3.1,13,0.00,,---,0.00,VWS V14.01,2013-03-28 20:15:00,
2013-03-28 16:20:00,51.6,4.0,29.97,WNW,285,4.0,4.0,14,0.00,,---,0.00,VWS V14.01,2013-03-28 20:20:00,
2013-03-28 16:25:00,51.6,4.0,29.97,North,353,4.9,4.9,14,0.00,,---,0.00,VWS V14.01,2013-03-28 20:25:00,
2013-03-28 16:30:00,50.5,3.1,29.97,WNW,285,5.4,5.4,14,0.00,,---,0.00,VWS V14.01,2013-03-28 20:30:00,
2013-03-28 16:35:00,50.0,2.7,29.97,NW,314,5.8,5.8,14,0.00,,---,0.00,VWS V14.01,2013-03-28 20:35:00,
2013-03-28 16:40:00,49.6,2.4,29.97,NW,314,5.8,5.8,14,0.00,,---,0.00,VWS V14.01,2013-03-28 20:40:00,
2013-03-28 16:45:00,49.6,2.4,29.97,WNW,282,8.3,8.3,14,0.00,,---,0.00,VWS V14.01,2013-03-28 20:45:00,
2013-03-28 16:50:00,49.6,2.4,29.97,West,264,4.0,4.0,14,0.00,,---,0.00,VWS V14.01,2013-03-28 20:50:00,
2013-03-28 16:55:00,49.6,2.4,29.97,North,357,2.7,2.7,14,0.00,,---,0.00,VWS V14.01,2013-03-28 20:55:00,
2013-03-28 17:00:00,49.8,2.5,29.97,NW,321,6.3,6.3,14,0.00,,---,0.00,VWS V14.01,2013-03-28 21:00:00,
2013-03-28 17:05:00,49.6,2.4,29.97,NE,48,3.6,3.6,14,0.00,,---,0.00,VWS V14.01,2013-03-28 21:05:00,
2013-03-28 17:10:00,49.6,2.4,29.97,NNW,333,5.8,5.8,14,0.00,,---,0.00,VWS V14.01,2013-03-28 21:10:00,
2013-03-28 17:15:00,49.6,2.4,29.97,NNE,30,4.9,4.9,14,0.00,,---,0.00,VWS V14.01,2013-03-28 21:15:00,
2013-03-28 17:20:00,49.8,2.5,29.97,NNW,329,6.3,6.3,14,0.00,,---,0.00,VWS V14.01,2013-03-28 21:20:00,
2013-03-28 17:25:00,49.8,2.5,29.97,NW,306,3.1,3.1,14,0.00,,---,0.00,VWS V14.01,2013-03-28 21:25:00,
2013-03-28 17:30:00,50.0,2.7,29.97,NNW,334,7.6,7.6,14,0.00,,---,0.00,VWS V14.01,2013-03-28 21:30:00,
2013-03-28 17:35:00,50.2,2.8,29.97,NW,308,5.4,5.4,14,0.00,,---,0.00,VWS V14.01,2013-03-28 21:35:00,
2013-03-28 17:40:00,50.2,2.8,29.97,WNW,288,5.4,5.4,14,0.00,,---,0.00,VWS V14.01,2013-03-28 21:40:00,
2013-03-28 17:45:00,50.2,2.8,29.97,WNW,287,3.6,3.6,14,0.00,,---,0.00,VWS V14.01,2013-03-28 21:45:00,
2013-03-28 17:50:00,49.6,2.4,29.97,WNW,287,3.6,3.6,14,0.00,,---,0.00,VWS V14.01,2013-03-28 21:50:00,
2013-03-28 17:55:00,49.1,2.0,29.97,NW,322,4.0,4.0,14,0.00,,---,0.00,VWS V14.01,2013-03-28 21:55:00,
2013-03-28 18:00:00,49.1,2.0,29.97,NNW,344,7.6,7.6,14,0.00,,---,0.00,VWS V14.01,2013-03-28 22:00:00,
2013-03-28 18:05:00,49.1,2.0,29.97,NNW,339,2.7,2.7,14,0.00,,---,0.00,VWS V14.01,2013-03-28 22:05:00,
2013-03-28 18:10:00,49.1,2.0,29.97,NW,315,8.3,8.3,14,0.00,,---,0.00,VWS V14.01,2013-03-28 22:10:00,
2013-03-28 18:15:00,48.4,1.4,30.00,NNE,28,6.3,6.3,14,0.00,,---,0.00,VWS V14.01,2013-03-28 22:15:00,
2013-03-28 18:20:00,48.2,1.2,30.00,NW,306,8.1,8.1,14,0.00,,---,0.00,VWS V14.01,2013-03-28 22:20:00,
2013-03-28 18:25:00,47.8,1.0,30.00,North,357,6.3,6.3,14,0.00,,---,0.00,VWS V14.01,2013-03-28 22:25:00,
2013-03-28 18:30:00,47.8,1.0,30.00,North,1,8.7,8.7,14,0.00,,---,0.00,VWS V14.01,2013-03-28 22:30:00,
2013-03-28 18:35:00,47.1,7.0,30.00,NNW,340,5.4,5.4,19,0.00,,---,0.00,VWS V14.01,2013-03-28 22:35:00,
2013-03-28 18:40:00,46.2,14.1,30.00,WNW,282,2.7,2.7,27,0.00,,---,0.00,VWS V14.01,2013-03-28 22:40:00,
2013-03-28 18:45:00,46.2,14.1,30.00,WNW,282,2.7,2.7,27,0.00,,---,0.00,VWS V14.01,2013-03-28 22:45:00,
2013-03-28 18:51:00,45.9,14.6,30.00,WNW,303,2.7,2.7,28,0.00,,---,0.00,VWS V14.01,2013-03-28 22:51:00,
2013-03-28 18:56:00,45.7,14.5,30.00,NW,304,2.2,2.2,28,0.00,,---,0.00,VWS V14.01,2013-03-28 22:56:00,
2013-03-28 19:01:00,45.5,14.3,30.00,West,281,0.0,0.0,28,0.00,,---,0.00,VWS V14.01,2013-03-28 23:01:00,
2013-03-28 19:06:00,45.3,14.1,30.00,WNW,298,3.6,3.6,28,0.00,,---,0.00,VWS V14.01,2013-03-28 23:06:00,
2013-03-28 19:11:00,45.3,14.1,30.00,WNW,293,2.2,2.2,28,0.00,,---,0.00,VWS V14.01,2013-03-28 23:11:00,
2013-03-28 19:16:00,45.1,14.0,30.00,West,275,3.1,3.1,28,0.00,,---,0.00,VWS V14.01,2013-03-28 23:16:00,
2013-03-28 19:21:00,45.1,14.0,30.00,West,273,2.7,2.7,28,0.00,,---,0.00,VWS V14.01,2013-03-28 23:21:00,
2013-03-28 19:26:00,45.0,13.8,30.00,WNW,283,0.0,0.0,28,0.00,,---,0.00,VWS V14.01,2013-03-28 23:26:00,
2013-03-28 19:31:00,44.8,13.7,30.00,WNW,290,0.0,0.0,28,0.00,,---,0.00,VWS V14.01,2013-03-28 23:31:00,
2013-03-28 19:36:00,44.8,13.7,30.00,West,277,0.0,0.0,28,0.00,,---,0.00,VWS V14.01,2013-03-28 23:36:00,
2013-03-28 19:41:00,44.8,13.7,30.00,WSW,253,0.0,0.0,28,0.00,,---,0.00,VWS V14.01,2013-03-28 23:41:00,
2013-03-28 19:46:00,44.8,13.7,30.03,WNW,284,0.0,0.0,28,0.00,,---,0.00,VWS V14.01,2013-03-28 23:46:00,
2013-03-28 19:51:00,44.6,13.5,30.03,WNW,296,4.9,4.9,28,0.00,,---,0.00,VWS V14.01,2013-03-28 23:51:00,
2013-03-28 19:57:00,44.6,13.5,30.03,WNW,297,5.4,5.4,28,0.00,,---,0.00,VWS V14.01,2013-03-28 23:57:00,
2013-03-28 20:02:00,44.6,13.5,30.03,West,261,2.7,2.7,28,0.00,,---,0.00,VWS V14.01,2013-03-29 00:02:00,
2013-03-28 20:07:00,44.4,13.4,30.03,WSW,249,3.6,3.6,28,0.00,,---,0.00,VWS V14.01,2013-03-29 00:07:00,
2013-03-28 20:12:00,44.6,13.5,30.03,West,273,5.8,5.8,28,0.00,,---,0.00,VWS V14.01,2013-03-29 00:12:00,
2013-03-28 20:17:00,44.8,13.7,30.03,WSW,252,4.0,4.0,28,0.00,,---,0.00,VWS V14.01,2013-03-29 00:17:00,
2013-03-28 20:22:00,44.8,12.9,30.03,West,277,5.4,5.4,27,0.00,,---,0.00,VWS V14.01,2013-03-29 00:22:00,
2013-03-28 20:27:00,44.8,12.9,30.03,West,268,5.4,5.4,27,0.00,,---,0.00,VWS V14.01,2013-03-29 00:27:00,
2013-03-28 20:32:00,45.1,11.4,30.03,West,268,5.4,5.4,25,0.00,,---,0.00,VWS V14.01,2013-03-29 00:32:00,
2013-03-28 20:37:00,45.1,11.4,30.03,WNW,287,4.0,4.0,25,0.00,,---,0.00,VWS V14.01,2013-03-29 00:37:00,
2013-03-28 20:42:00,45.1,11.4,30.03,West,268,2.7,2.7,25,0.00,,---,0.00,VWS V14.01,2013-03-29 00:42:00,
2013-03-28 20:47:00,45.1,8.6,30.03,NW,323,3.6,3.6,22,0.00,,---,0.00,VWS V14.01,2013-03-29 00:47:00,
2013-03-28 20:52:00,45.1,8.6,30.03,WNW,302,6.3,6.3,22,0.00,,---,0.00,VWS V14.01,2013-03-29 00:52:00,
2013-03-28 20:57:00,45.1,8.6,30.03,WNW,303,4.9,4.9,22,0.00,,---,0.00,VWS V14.01,2013-03-29 00:57:00,
2013-03-28 21:02:00,45.1,8.6,30.03,West,281,4.0,4.0,22,0.00,,---,0.00,VWS V14.01,2013-03-29 01:02:00,
2013-03-28 21:07:00,45.1,8.6,30.03,WNW,298,5.4,5.4,22,0.00,,---,0.00,VWS V14.01,2013-03-29 01:07:00,
2013-03-28 21:12:00,45.1,8.6,30.03,NNW,342,3.6,3.6,22,0.00,,---,0.00,VWS V14.01,2013-03-29 01:12:00,
2013-03-28 21:17:00,45.1,8.6,30.03,NW,304,3.6,3.6,22,0.00,,---,0.00,VWS V14.01,2013-03-29 01:17:00,
2013-03-28 21:22:00,45.1,8.6,30.06,NW,316,4.0,4.0,22,0.00,,---,0.00,VWS V14.01,2013-03-29 01:22:00,
2013-03-28 21:27:00,45.1,8.6,30.06,WNW,291,0.0,0.0,22,0.00,,---,0.00,VWS V14.01,2013-03-29 01:27:00,
2013-03-28 21:32:00,45.1,8.6,30.06,West,279,4.9,4.9,22,0.00,,---,0.00,VWS V14.01,2013-03-29 01:32:00,
2013-03-28 21:37:00,45.1,8.6,30.06,West,265,3.1,3.1,22,0.00,,---,0.00,VWS V14.01,2013-03-29 01:37:00,
2013-03-28 21:42:00,45.1,6.5,30.06,WNW,301,5.4,5.4,20,0.00,,---,0.00,VWS V14.01,2013-03-29 01:42:00,
2013-03-28 21:47:00,45.1,6.5,30.06,West,277,3.6,3.6,20,0.00,,---,0.00,VWS V14.01,2013-03-29 01:47:00,
2013-03-28 21:53:00,45.1,6.5,30.06,West,265,8.1,8.1,20,0.00,,---,0.00,VWS V14.01,2013-03-29 01:53:00,
2013-03-28 21:58:00,45.1,6.5,30.06,West,272,5.4,5.4,20,0.00,,---,0.00,VWS V14.01,2013-03-29 01:58:00,
2013-03-28 22:03:00,45.1,6.5,30.06,West,263,4.0,4.0,20,0.00,,---,0.00,VWS V14.01,2013-03-29 02:03:00,
2013-03-28 22:08:00,45.1,6.5,30.06,NW,305,3.6,3.6,20,0.00,,---,0.00,VWS V14.01,2013-03-29 02:08:00,
2013-03-28 22:13:00,45.0,6.3,30.06,WNW,288,2.7,2.7,20,0.00,,---,0.00,VWS V14.01,2013-03-29 02:13:00,
2013-03-28 22:18:00,45.0,6.3,30.06,WNW,286,4.0,4.0,20,0.00,,---,0.00,VWS V14.01,2013-03-29 02:18:00,
2013-03-28 22:23:00,45.0,6.3,30.06,NNW,328,3.6,3.6,20,0.00,,---,0.00,VWS V14.01,2013-03-29 02:23:00,
2013-03-28 22:28:00,45.0,8.4,30.06,West,276,5.4,5.4,22,0.00,,---,0.00,VWS V14.01,2013-03-29 02:28:00,
2013-03-28 22:33:00,45.0,8.4,30.06,WNW,287,3.6,3.6,22,0.00,,---,0.00,VWS V14.01,2013-03-29 02:33:00,
2013-03-28 22:38:00,45.0,8.4,30.06,NW,323,5.4,5.4,22,0.00,,---,0.00,VWS V14.01,2013-03-29 02:38:00,
2013-03-28 22:43:00,44.8,8.3,30.06,NNE,16,3.1,3.1,22,0.00,,---,0.00,VWS V14.01,2013-03-29 02:43:00,
2013-03-28 22:48:00,44.8,8.3,30.06,NW,324,5.4,5.4,22,0.00,,---,0.00,VWS V14.01,2013-03-29 02:48:00,
2013-03-28 22:53:00,44.8,8.3,30.06,WNW,290,3.1,3.1,22,0.00,,---,0.00,VWS V14.01,2013-03-29 02:53:00,
2013-03-28 22:58:00,44.8,8.3,30.06,West,266,8.1,8.1,22,0.00,,---,0.00,VWS V14.01,2013-03-29 02:58:00,
2013-03-28 23:03:00,44.8,8.3,30.06,West,276,5.8,5.8,22,0.00,,---,0.00,VWS V14.01,2013-03-29 03:03:00,
2013-03-28 23:08:00,44.8,8.3,30.06,WNW,289,3.6,3.6,22,0.00,,---,0.00,VWS V14.01,2013-03-29 03:08:00,
2013-03-28 23:13:00,44.8,8.3,30.06,WNW,298,3.6,3.6,22,0.00,,---,0.00,VWS V14.01,2013-03-29 03:13:00,
2013-03-28 23:18:00,44.8,8.3,30.06,WNW,291,4.0,4.0,22,0.00,,---,0.00,VWS V14.01,2013-03-29 03:18:00,
2013-03-28 23:23:00,44.8,8.3,30.06,West,260,4.0,4.0,22,0.00,,---,0.00,VWS V14.01,2013-03-29 03:23:00,
2013-03-28 23:28:00,44.8,8.3,30.06,North,353,2.2,2.2,22,0.00,,---,0.00,VWS V14.01,2013-03-29 03:28:00,
2013-03-28 23:33:00,44.8,8.3,30.06,NNW,334,5.8,5.8,22,0.00,,---,0.00,VWS V14.01,2013-03-29 03:33:00,
2013-03-28 23:38:00,44.8,8.3,30.06,NNW,344,2.7,2.7,22,0.00,,---,0.00,VWS V14.01,2013-03-29 03:38:00,
2013-03-28 23:43:00,44.6,8.1,30.06,WNW,299,4.9,4.9,22,0.00,,---,0.00,VWS V14.01,2013-03-29 03:43:00,
2013-03-28 23:48:00,44.6,8.1,30.06,WNW,299,4.9,4.9,22,0.00,,---,0.00,VWS V14.01,2013-03-29 03:48:00,
2013-03-28 23:53:00,44.6,8.1,30.06,West,267,4.0,4.0,22,0.00,,---,0.00,VWS V14.01,2013-03-29 03:53:00,
2013-03-28 23:58:00,44.4,8.9,30.06,West,262,2.7,2.7,23,0.00,,---,0.00,VWS V14.01,2013-03-29 03:58:00,